Time;durP1;ratioP1;P1;durP2;ratioP2;P2;SDS_P1;SDS_P2;PMS_P1;PMS_P2;Temp;Humidity;BMP_temperature;BMP_pressure;BME280_temperature;BME280_humidity;BME280_pressure;Samples;Min_cycle;Max_cycle;Signal;HPM_P1;HPM_P2
2022/09/29 05:00:45;;;;;;;3.47;3.13;;;10.20;97.20;;;;;;1615914;30;20273;-73
2022/09/29 05:01:36;;;;;;;3.10;2.90;;;10.20;97.20;;;;;;1626537;30;20313;-73
2022/09/29 05:02:28;;;;;;;3.63;3.20;;;10.20;97.20;;;;;;1635893;30;20327;-73
2022/09/29 05:03:19;;;;;;;4.63;3.70;;;10.20;97.20;;;;;;1650431;30;20216;-73
2022/09/29 05:04:12;;;;;;;3.30;2.93;;;10.20;97.20;;;;;;1650157;30;20205;-73
2022/09/29 05:05:04;;;;;;;3.28;2.92;;;10.20;97.20;;;;;;1649587;29;20227;-73
2022/09/29 05:05:56;;;;;;;5.78;3.90;;;10.20;97.20;;;;;;1650053;30;20285;-73
2022/09/29 05:06:47;;;;;;;3.50;3.20;;;10.20;97.20;;;;;;1650578;30;20243;-73
2022/09/29 05:07:40;;;;;;;4.47;3.67;;;10.20;97.20;;;;;;1650164;30;20211;-73
2022/09/29 05:08:31;;;;;;;5.10;3.45;;;10.30;97.20;;;;;;1650053;30;20458;-73
2022/09/29 05:09:22;;;;;;;5.03;4.17;;;10.30;97.20;;;;;;1650764;29;20240;-73
2022/09/29 05:10:13;;;;;;;5.13;3.80;;;10.30;97.20;;;;;;1650457;30;20213;-74
2022/09/29 05:11:06;;;;;;;4.87;3.87;;;10.30;97.20;;;;;;1650531;29;20288;-74
2022/09/29 05:11:57;;;;;;;6.90;3.75;;;10.30;97.20;;;;;;1650004;30;20213;-74
2022/09/29 05:12:49;;;;;;;4.63;4.23;;;10.30;97.20;;;;;;1650327;29;20209;-74
2022/09/29 05:13:40;;;;;;;6.30;4.90;;;10.30;97.20;;;;;;1650746;30;20261;-74
2022/09/29 05:14:32;;;;;;;4.23;3.73;;;10.30;97.20;;;;;;1650674;30;20277;-74
2022/09/29 05:15:23;;;;;;;4.57;4.18;;;10.30;97.20;;;;;;1650591;29;21080;-72
2022/09/29 05:16:16;;;;;;;5.43;4.17;;;10.30;97.20;;;;;;1650722;29;20731;-72
2022/09/29 05:17:06;;;;;;;4.47;3.92;;;10.30;97.20;;;;;;1650652;30;20243;-73
2022/09/29 05:18:01;;;;;;;6.93;3.73;;;10.30;97.20;;;;;;1650751;29;20216;-72
2022/09/29 05:18:52;;;;;;;5.75;3.60;;;10.20;97.20;;;;;;1650744;30;20587;-73
2022/09/29 05:19:44;;;;;;;3.97;3.07;;;10.20;97.20;;;;;;1650396;30;20642;-73
2022/09/29 05:20:34;;;;;;;3.67;3.40;;;10.20;97.20;;;;;;1650383;29;20723;-73
2022/09/29 05:21:26;;;;;;;8.07;3.87;;;10.20;97.20;;;;;;1650555;29;20600;-73
2022/09/29 05:22:23;;;;;;;3.88;3.20;;;10.20;97.20;;;;;;1650607;30;20236;-73
2022/09/29 05:23:14;;;;;;;4.25;3.50;;;10.20;97.20;;;;;;1656225;29;20269;-72
2022/09/29 05:24:05;;;;;;;3.15;2.88;;;10.20;97.20;;;;;;1655993;29;20211;-72
2022/09/29 05:24:57;;;;;;;3.83;3.20;;;10.20;97.20;;;;;;1656443;29;20239;-73
2022/09/29 05:25:48;;;;;;;4.07;3.67;;;10.20;97.20;;;;;;1651047;29;20220;-73
2022/09/29 05:26:40;;;;;;;6.80;3.80;;;10.20;97.20;;;;;;1649843;29;20213;-73
2022/09/29 05:27:31;;;;;;;3.78;3.35;;;10.20;97.20;;;;;;1649886;29;20981;-73
2022/09/29 05:28:22;;;;;;;3.65;3.33;;;10.20;97.20;;;;;;1650256;29;20664;-73
2022/09/29 05:29:13;;;;;;;4.10;3.78;;;10.20;97.20;;;;;;1650182;29;20219;-73
2022/09/29 05:30:06;;;;;;;4.20;3.80;;;10.20;97.20;;;;;;1650020;29;20208;-72
2022/09/29 05:31:01;;;;;;;6.07;5.35;;;10.20;97.20;;;;;;1650174;30;20232;-72
2022/09/29 05:31:54;;;;;;;7.85;4.60;;;10.20;97.20;;;;;;1650339;29;20260;-73
2022/09/29 05:32:44;;;;;;;3.90;3.60;;;10.20;97.20;;;;;;1650366;29;20219;-72
2022/09/29 05:33:37;;;;;;;6.50;4.60;;;10.20;97.20;;;;;;1650186;29;20212;-73
2022/09/29 05:34:28;;;;;;;4.90;4.50;;;10.20;97.20;;;;;;1650225;29;20217;-72
2022/09/29 05:35:20;;;;;;;4.60;4.20;;;10.20;97.20;;;;;;1650131;29;20291;-73
2022/09/29 05:36:11;;;;;;;5.43;5.03;;;10.20;97.20;;;;;;1650129;29;20683;-73
2022/09/29 05:37:03;;;;;;;5.28;4.88;;;10.20;97.20;;;;;;1649760;29;20206;-73
2022/09/29 05:37:54;;;;;;;5.15;4.75;;;10.20;97.20;;;;;;1650280;30;20241;-73
2022/09/29 05:38:46;;;;;;;4.77;4.37;;;10.20;97.20;;;;;;1650240;30;20219;-73
2022/09/29 05:39:36;;;;;;;4.90;4.50;;;10.20;97.20;;;;;;1649851;30;20560;-73
2022/09/29 05:40:28;;;;;;;4.73;4.43;;;10.20;97.20;;;;;;1650002;30;20235;-73
2022/09/29 05:41:22;;;;;;;4.38;4.07;;;10.20;97.20;;;;;;1650001;29;20469;-73
2022/09/29 05:42:13;;;;;;;6.40;3.95;;;10.30;97.20;;;;;;1649903;30;20204;-73
2022/09/29 05:43:04;;;;;;;6.15;4.15;;;10.30;97.20;;;;;;1650154;29;20579;-73
2022/09/29 05:43:57;;;;;;;4.43;4.13;;;10.30;97.20;;;;;;1650168;30;20650;-72
2022/09/29 05:44:48;;;;;;;4.35;3.97;;;10.30;97.20;;;;;;1650115;30;20209;-72
2022/09/29 05:45:40;;;;;;;5.00;4.20;;;10.30;97.20;;;;;;1650163;29;20275;-73
2022/09/29 05:46:30;;;;;;;3.50;3.15;;;10.30;97.20;;;;;;1650160;30;20295;-73
2022/09/29 05:47:23;;;;;;;3.47;3.17;;;10.20;97.20;;;;;;1649840;29;20248;-73
2022/09/29 05:48:14;;;;;;;3.30;3.00;;;10.20;97.20;;;;;;1650122;29;20216;-73
2022/09/29 05:49:06;;;;;;;3.97;3.67;;;10.20;97.20;;;;;;1650162;30;20215;-74
2022/09/29 05:49:56;;;;;;;5.00;3.05;;;10.20;97.20;;;;;;1649850;30;20220;-74
2022/09/29 05:50:48;;;;;;;3.17;2.83;;;10.20;97.20;;;;;;1649943;30;20715;-74
2022/09/29 05:51:39;;;;;;;5.97;3.00;;;10.20;97.20;;;;;;1649940;29;20553;-74
2022/09/29 05:52:31;;;;;;;4.50;3.33;;;10.20;97.20;;;;;;1650122;30;20219;-74
2022/09/29 05:53:22;;;;;;;5.07;3.10;;;10.20;97.20;;;;;;1650308;30;20246;-74
2022/09/29 05:54:13;;;;;;;3.80;3.50;;;10.20;97.20;;;;;;1650078;30;20508;-74
2022/09/29 05:55:07;;;;;;;3.15;2.95;;;10.20;97.20;;;;;;1649914;29;20450;-74
2022/09/29 05:55:59;;;;;;;3.97;3.03;;;10.20;97.20;;;;;;1649985;30;20281;-74
2022/09/29 05:56:50;;;;;;;3.35;3.05;;;10.20;97.20;;;;;;1650035;30;20220;-74
2022/09/29 05:57:42;;;;;;;9.07;3.50;;;10.20;97.20;;;;;;1650230;30;20208;-74
2022/09/29 05:58:32;;;;;;;5.25;3.30;;;10.20;97.20;;;;;;1650102;29;20208;-74
2022/09/29 05:59:24;;;;;;;3.53;3.23;;;10.20;97.20;;;;;;1649867;30;20213;-74
2022/09/29 06:00:15;;;;;;;3.65;3.35;;;10.20;97.20;;;;;;1649606;30;20482;-74
2022/09/29 06:01:08;;;;;;;3.80;3.50;;;10.20;97.20;;;;;;1657184;29;20211;-73
2022/09/29 06:01:59;;;;;;;5.70;3.92;;;10.20;97.20;;;;;;1669123;29;20228;-73
2022/09/29 06:02:52;;;;;;;4.47;4.10;;;10.20;97.20;;;;;;1675437;29;20213;-74
2022/09/29 06:03:43;;;;;;;4.20;3.90;;;10.20;97.20;;;;;;1681586;29;20243;-74
2022/09/29 06:04:35;;;;;;;4.70;4.30;;;10.20;97.20;;;;;;1681609;29;20217;-74
2022/09/29 06:05:26;;;;;;;3.95;3.65;;;10.20;97.20;;;;;;1681582;29;20584;-74
2022/09/29 06:06:20;;;;;;;3.42;3.10;;;10.20;97.20;;;;;;1681450;29;20209;-74
2022/09/29 06:07:11;;;;;;;3.30;3.00;;;10.20;97.20;;;;;;1681313;29;20212;-74
2022/09/29 06:08:03;;;;;;;2.87;2.67;;;10.20;97.20;;;;;;1681229;29;20207;-73
2022/09/29 06:08:56;;;;;;;3.22;2.92;;;10.20;97.20;;;;;;1681337;29;20296;-74
2022/09/29 06:09:48;;;;;;;3.33;3.10;;;10.20;97.20;;;;;;1681257;29;20217;-74
2022/09/29 06:10:38;;;;;;;7.18;2.55;;;10.20;97.20;;;;;;1681393;29;20330;-74
2022/09/29 06:11:31;;;;;;;3.33;3.00;;;10.20;97.20;;;;;;1681308;29;20267;-73
2022/09/29 06:12:22;;;;;;;5.65;3.15;;;10.20;97.20;;;;;;1681393;29;20217;-74
2022/09/29 06:13:14;;;;;;;3.20;3.00;;;10.20;97.20;;;;;;1681364;29;20672;-74
2022/09/29 06:14:04;;;;;;;3.75;3.45;;;10.20;97.20;;;;;;1681368;29;20209;-74
2022/09/29 06:14:56;;;;;;;4.80;4.40;;;10.20;97.20;;;;;;1681524;29;20209;-74
2022/09/29 06:15:47;;;;;;;7.68;5.80;;;10.20;97.20;;;;;;1681367;29;20213;-73
2022/09/29 06:16:40;;;;;;;6.53;5.60;;;10.20;97.20;;;;;;1681568;29;20237;-74
2022/09/29 06:17:31;;;;;;;7.50;6.32;;;10.20;97.20;;;;;;1681329;29;20221;-73
2022/09/29 06:18:24;;;;;;;6.73;6.03;;;10.20;97.20;;;;;;1681441;29;20205;-73
2022/09/29 06:19:16;;;;;;;9.35;7.03;;;10.20;97.20;;;;;;1681405;29;20450;-73
2022/09/29 06:20:08;;;;;;;10.88;8.13;;;10.30;97.20;;;;;;1681141;29;20583;-73
2022/09/29 06:21:04;;;;;;;12.80;8.45;;;10.30;97.20;;;;;;1681344;29;20280;-73
2022/09/29 06:21:54;;;;;;;10.77;8.30;;;10.30;97.20;;;;;;1681408;29;20205;-73
2022/09/29 06:22:46;;;;;;;9.87;8.13;;;10.30;97.20;;;;;;1681242;29;20209;-73
2022/09/29 06:23:37;;;;;;;11.85;8.63;;;10.30;97.20;;;;;;1681343;29;20213;-73
2022/09/29 06:24:29;;;;;;;14.15;10.48;;;10.30;97.20;;;;;;1680947;29;20221;-73
2022/09/29 06:25:20;;;;;;;15.25;10.85;;;10.30;97.20;;;;;;1681472;29;20645;-73
2022/09/29 06:26:14;;;;;;;14.43;10.30;;;10.30;97.20;;;;;;1681303;29;20224;-74
2022/09/29 06:27:05;;;;;;;15.18;11.50;;;10.40;97.20;;;;;;1681452;29;20446;-74
2022/09/29 06:27:56;;;;;;;22.10;13.30;;;10.40;97.20;;;;;;1681404;29;20205;-74
2022/09/29 06:28:47;;;;;;;16.40;11.35;;;10.40;97.20;;;;;;1681046;29;20209;-74
2022/09/29 06:29:39;;;;;;;15.27;11.30;;;10.40;97.20;;;;;;1681263;29;20213;-74
2022/09/29 06:30:29;;;;;;;16.90;10.50;;;10.40;97.20;;;;;;1681218;29;20450;-74
2022/09/29 06:31:24;;;;;;;13.60;10.20;;;10.40;97.20;;;;;;1681483;29;20525;-74
2022/09/29 06:32:15;;;;;;;12.48;7.88;;;10.50;97.20;;;;;;1681414;29;20589;-74
2022/09/29 06:33:06;;;;;;;9.53;7.83;;;10.50;97.20;;;;;;1681253;29;20513;-73
2022/09/29 06:34:00;;;;;;;13.70;8.50;;;10.50;97.20;;;;;;1681189;29;20449;-74
2022/09/29 06:38:23;;;;;;;11.20;8.43;;;10.50;97.20;;;;;;1681147;29;20205;-73
2022/09/29 06:39:15;;;;;;;6.45;5.72;;;10.50;97.20;;;;;;1681086;29;20209;-73
2022/09/29 06:40:08;;;;;;;6.15;5.55;;;10.50;97.20;;;;;;1681054;29;20205;-73
2022/09/29 06:41:00;;;;;;;7.80;5.32;;;10.50;97.20;;;;;;1680940;29;20229;-73
2022/09/29 06:41:53;;;;;;;6.50;4.85;;;10.50;97.20;;;;;;1681377;29;20197;-73
2022/09/29 06:42:44;;;;;;;3.85;3.55;;;10.50;97.20;;;;;;1681544;29;20622;-73
2022/09/29 06:43:36;;;;;;;3.67;3.38;;;10.50;97.20;;;;;;1681606;29;20287;-74
2022/09/29 06:44:28;;;;;;;3.22;2.90;;;10.60;97.20;;;;;;1681343;29;20216;-74
2022/09/29 06:45:20;;;;;;;3.50;3.20;;;10.60;97.20;;;;;;1680743;29;20219;-74
2022/09/29 06:46:11;;;;;;;3.47;3.20;;;10.60;97.20;;;;;;1681299;29;20209;-74
2022/09/29 06:47:02;;;;;;;3.27;3.07;;;10.60;97.20;;;;;;1681434;29;20209;-74
2022/09/29 06:47:57;;;;;;;3.58;3.28;;;10.60;97.20;;;;;;1681546;29;20205;-74
2022/09/29 06:48:49;;;;;;;3.13;2.92;;;10.60;97.20;;;;;;1681539;29;20262;-74
2022/09/29 06:49:41;;;;;;;3.30;3.00;;;10.60;97.20;;;;;;1681322;29;20205;-74
2022/09/29 06:50:34;;;;;;;3.38;2.90;;;10.70;97.20;;;;;;1681462;29;20229;-74
2022/09/29 06:51:25;;;;;;;3.30;3.00;;;10.70;97.20;;;;;;1681430;29;20255;-74
2022/09/29 06:52:18;;;;;;;3.30;3.00;;;10.70;97.20;;;;;;1681638;29;20201;-74
2022/09/29 06:53:08;;;;;;;4.28;3.40;;;10.70;97.20;;;;;;1681586;29;20212;-74
2022/09/29 06:54:00;;;;;;;3.20;3.00;;;10.70;97.20;;;;;;1681667;29;20212;-74
2022/09/29 06:54:51;;;;;;;3.40;3.10;;;10.70;97.20;;;;;;1681573;29;20593;-74
2022/09/29 06:55:43;;;;;;;3.33;3.00;;;10.70;97.20;;;;;;1681649;29;20209;-74
2022/09/29 06:56:33;;;;;;;3.58;3.30;;;10.80;97.20;;;;;;1681347;29;20229;-74
2022/09/29 06:57:25;;;;;;;3.67;3.37;;;10.80;97.20;;;;;;1681789;29;20197;-74
2022/09/29 06:58:16;;;;;;;3.70;3.40;;;10.80;97.20;;;;;;1681601;29;20616;-74
2022/09/29 06:59:08;;;;;;;3.93;3.03;;;10.80;97.20;;;;;;1680938;29;20610;-74
2022/09/29 06:59:59;;;;;;;4.25;3.85;;;10.80;97.20;;;;;;1681328;29;20213;-74
2022/09/29 07:00:50;;;;;;;4.10;3.60;;;10.80;97.20;;;;;;1684549;29;20217;-74
2022/09/29 07:01:41;;;;;;;3.42;3.13;;;10.80;97.20;;;;;;1685089;29;20470;-74
2022/09/29 07:02:33;;;;;;;3.85;3.55;;;10.80;97.20;;;;;;1681039;29;20537;-74
2022/09/29 07:03:24;;;;;;;5.22;3.35;;;10.90;97.20;;;;;;1681528;29;20201;-73
2022/09/29 07:04:16;;;;;;;3.60;3.30;;;10.90;97.20;;;;;;1680855;29;20204;-74
2022/09/29 07:05:08;;;;;;;3.17;2.90;;;10.90;97.20;;;;;;1680842;29;20222;-74
2022/09/29 07:06:02;;;;;;;3.35;3.05;;;11.00;97.20;;;;;;1681418;29;20237;-74
2022/09/29 07:06:53;;;;;;;5.40;3.30;;;11.00;97.20;;;;;;1681493;29;20694;-74
2022/09/29 07:07:47;;;;;;;4.20;3.80;;;11.00;97.20;;;;;;1681601;29;20617;-74
2022/09/29 07:08:38;;;;;;;4.68;4.20;;;11.00;97.20;;;;;;1681526;29;20205;-74
2022/09/29 07:09:30;;;;;;;5.97;4.47;;;11.00;97.20;;;;;;1681476;29;20213;-73
2022/09/29 07:10:21;;;;;;;4.90;4.50;;;11.00;97.20;;;;;;1681172;29;20565;-74
2022/09/29 07:11:13;;;;;;;4.53;4.13;;;11.00;97.20;;;;;;1681507;29;20615;-74
2022/09/29 07:12:04;;;;;;;5.20;4.35;;;11.00;97.20;;;;;;1681490;29;20446;-74
2022/09/29 07:12:57;;;;;;;5.18;4.38;;;11.00;97.20;;;;;;1681532;29;20209;-74
2022/09/29 07:13:49;;;;;;;5.40;4.93;;;11.10;97.20;;;;;;1681546;29;20216;-74
2022/09/29 07:14:40;;;;;;;4.65;4.20;;;11.10;97.20;;;;;;1681245;29;20198;-74
2022/09/29 07:15:31;;;;;;;4.57;4.18;;;11.10;97.20;;;;;;1681443;29;20209;-74
2022/09/29 07:16:23;;;;;;;5.57;5.07;;;11.10;97.20;;;;;;1681408;29;20229;-74
2022/09/29 07:17:14;;;;;;;8.40;4.90;;;11.10;97.20;;;;;;1681404;29;20205;-74
2022/09/29 07:18:06;;;;;;;5.57;5.07;;;11.10;97.20;;;;;;1681485;29;20226;-74
2022/09/29 07:18:56;;;;;;;5.50;5.00;;;11.10;97.20;;;;;;1681464;29;20217;-74
2022/09/29 07:19:48;;;;;;;4.77;4.37;;;11.10;97.20;;;;;;1681250;29;20213;-74
2022/09/29 07:20:40;;;;;;;5.15;4.35;;;11.10;97.20;;;;;;1681491;29;20233;-74
2022/09/29 07:21:32;;;;;;;4.50;3.60;;;11.10;97.20;;;;;;1681407;29;20224;-74
2022/09/29 07:22:22;;;;;;;4.40;3.67;;;11.10;97.20;;;;;;1681435;29;20209;-74
2022/09/29 07:23:14;;;;;;;4.10;3.80;;;11.10;97.20;;;;;;1681423;29;20219;-74
2022/09/29 07:24:05;;;;;;;4.55;4.15;;;11.10;97.20;;;;;;1681441;29;20241;-74
2022/09/29 07:24:57;;;;;;;4.47;3.67;;;11.10;97.20;;;;;;1681447;29;20205;-74
2022/09/29 07:25:48;;;;;;;6.57;3.55;;;11.10;97.20;;;;;;1681512;29;20449;-74
2022/09/29 07:26:39;;;;;;;4.30;3.90;;;11.10;97.20;;;;;;1681366;29;20201;-74
2022/09/29 07:27:33;;;;;;;3.83;3.53;;;11.10;97.20;;;;;;1681373;29;20823;-75
2022/09/29 07:28:24;;;;;;;4.15;3.75;;;11.10;97.20;;;;;;1681478;29;20205;-74
2022/09/29 07:29:15;;;;;;;4.03;3.70;;;11.10;97.20;;;;;;1681321;29;20209;-73
2022/09/29 07:30:08;;;;;;;3.97;3.57;;;11.10;97.20;;;;;;1681152;29;20217;-74
2022/09/29 07:31:00;;;;;;;3.90;3.50;;;11.10;97.20;;;;;;1681056;29;20478;-74
2022/09/29 07:31:54;;;;;;;3.65;3.13;;;11.20;97.20;;;;;;1681410;29;20568;-73
2022/09/29 07:32:45;;;;;;;3.55;2.95;;;11.20;97.20;;;;;;1681488;29;20217;-74
2022/09/29 07:33:37;;;;;;;3.50;3.20;;;11.20;97.20;;;;;;1681352;29;20240;-73
2022/09/29 07:34:28;;;;;;;5.20;2.97;;;11.20;97.20;;;;;;1681476;29;20216;-74
2022/09/29 07:35:19;;;;;;;3.22;2.95;;;11.20;97.20;;;;;;1681338;29;20206;-74
2022/09/29 07:36:13;;;;;;;3.60;3.30;;;11.20;97.20;;;;;;1681371;29;20196;-74
2022/09/29 07:37:04;;;;;;;3.95;3.65;;;11.20;97.20;;;;;;1681360;29;20287;-74
2022/09/29 07:37:56;;;;;;;4.22;3.20;;;11.20;97.20;;;;;;1681361;29;20205;-74
2022/09/29 07:38:48;;;;;;;3.70;3.15;;;11.20;97.20;;;;;;1681357;29;20216;-74
2022/09/29 07:39:39;;;;;;;3.85;3.55;;;11.20;97.20;;;;;;1681187;29;20291;-74
2022/09/29 07:40:30;;;;;;;4.57;3.28;;;11.20;97.20;;;;;;1681209;29;20225;-75
2022/09/29 07:41:22;;;;;;;5.23;3.80;;;11.30;97.20;;;;;;1681474;29;20197;-74
2022/09/29 07:42:13;;;;;;;4.38;3.97;;;11.30;97.20;;;;;;1681310;29;20229;-74
2022/09/29 07:43:06;;;;;;;3.87;3.57;;;11.30;97.20;;;;;;1681425;29;20212;-74
2022/09/29 07:43:58;;;;;;;4.05;3.05;;;11.40;97.20;;;;;;1681364;29;20209;-74
2022/09/29 07:44:48;;;;;;;3.75;3.40;;;11.40;97.20;;;;;;1681440;29;20314;-74
2022/09/29 07:45:46;;;;;;;3.90;3.50;;;11.40;97.20;;;;;;1681364;29;20221;-74
2022/09/29 07:46:37;;;;;;;4.75;3.08;;;11.40;97.20;;;;;;1681050;29;20209;-74
2022/09/29 07:47:28;;;;;;;4.20;3.10;;;11.40;97.20;;;;;;1681334;29;20201;-74
2022/09/29 07:48:19;;;;;;;3.47;3.17;;;11.40;97.20;;;;;;1681325;29;20212;-74
2022/09/29 07:49:11;;;;;;;4.27;3.87;;;11.50;97.20;;;;;;1681292;29;20201;-74
2022/09/29 07:50:02;;;;;;;4.53;4.13;;;11.50;97.20;;;;;;1681137;29;20205;-74
2022/09/29 07:51:00;;;;;;;4.30;3.90;;;11.50;97.20;;;;;;1681201;29;20232;-74
2022/09/29 07:51:53;;;;;;;4.97;4.53;;;11.50;97.20;;;;;;1681286;29;20733;-74
2022/09/29 07:52:45;;;;;;;4.60;4.20;;;11.60;97.20;;;;;;1681395;29;20574;-73
2022/09/29 07:53:36;;;;;;;4.70;4.30;;;11.60;97.20;;;;;;1681427;29;20554;-74
2022/09/29 07:54:27;;;;;;;5.45;4.90;;;11.60;97.20;;;;;;1681235;29;20197;-73
2022/09/29 07:55:20;;;;;;;4.30;4.00;;;11.60;97.20;;;;;;1681357;29;20690;-74
2022/09/29 07:56:14;;;;;;;4.35;3.83;;;11.60;97.20;;;;;;1681312;29;20212;-74
2022/09/29 07:57:05;;;;;;;3.67;3.38;;;11.70;97.20;;;;;;1681325;29;20197;-74
2022/09/29 07:57:57;;;;;;;4.07;3.77;;;11.70;97.20;;;;;;1681402;29;20213;-74
2022/09/29 07:58:49;;;;;;;3.63;3.33;;;11.70;97.20;;;;;;1681326;29;20232;-74
2022/09/29 07:59:40;;;;;;;4.80;3.60;;;11.70;97.20;;;;;;1681113;29;20279;-74
2022/09/29 08:00:31;;;;;;;3.13;2.85;;;11.70;97.20;;;;;;1681168;29;20240;-74
2022/09/29 08:01:23;;;;;;;3.63;3.30;;;11.80;97.20;;;;;;1675296;29;20221;-74
2022/09/29 08:02:14;;;;;;;4.15;3.35;;;11.80;97.20;;;;;;1681246;29;20236;-74
2022/09/29 08:03:07;;;;;;;3.40;3.10;;;11.80;97.20;;;;;;1681238;29;20235;-74
2022/09/29 08:03:58;;;;;;;5.70;4.00;;;11.80;97.20;;;;;;1680983;29;20197;-74
2022/09/29 08:04:49;;;;;;;5.70;4.40;;;11.80;97.20;;;;;;1681378;29;20260;-74
2022/09/29 08:05:40;;;;;;;4.93;4.28;;;11.80;97.20;;;;;;1681369;29;20216;-74
2022/09/29 08:06:32;;;;;;;6.43;4.85;;;11.80;97.20;;;;;;1681283;29;20704;-74
2022/09/29 08:07:24;;;;;;;5.20;4.70;;;11.80;97.20;;;;;;1681325;29;20260;-74
2022/09/29 08:08:16;;;;;;;4.65;4.15;;;11.80;97.20;;;;;;1681331;29;20212;-74
2022/09/29 08:09:07;;;;;;;5.40;4.72;;;11.90;97.20;;;;;;1681272;29;20205;-74
2022/09/29 08:09:58;;;;;;;5.20;4.70;;;11.90;97.20;;;;;;1681076;29;20205;-74
2022/09/29 08:10:49;;;;;;;4.68;4.03;;;11.90;97.20;;;;;;1681067;29;20565;-74
2022/09/29 08:11:43;;;;;;;5.10;3.50;;;11.90;97.20;;;;;;1681318;29;20238;-74
2022/09/29 08:12:33;;;;;;;5.00;4.25;;;11.90;97.20;;;;;;1681358;29;20675;-74
2022/09/29 08:13:25;;;;;;;5.93;3.80;;;11.90;97.20;;;;;;1681265;29;20652;-74
2022/09/29 08:14:16;;;;;;;4.43;3.85;;;11.90;97.20;;;;;;1681332;29;20212;-74
2022/09/29 08:15:08;;;;;;;3.33;3.03;;;11.90;97.20;;;;;;1681346;29;20205;-74
2022/09/29 08:16:00;;;;;;;2.55;2.35;;;12.00;97.20;;;;;;1681298;29;20225;-74
2022/09/29 08:16:51;;;;;;;2.80;2.50;;;12.00;97.20;;;;;;1681128;29;20221;-74
2022/09/29 08:17:42;;;;;;;2.88;2.67;;;12.00;97.20;;;;;;1681181;29;20213;-74
2022/09/29 08:18:35;;;;;;;4.17;2.37;;;12.00;97.20;;;;;;1681304;29;20201;-74
2022/09/29 08:19:27;;;;;;;2.53;2.33;;;12.00;97.20;;;;;;1681167;29;20209;-74
2022/09/29 08:20:19;;;;;;;2.20;2.10;;;12.00;97.20;;;;;;1680654;29;20201;-74
2022/09/29 08:21:10;;;;;;;4.18;2.55;;;12.00;97.20;;;;;;1681240;29;20213;-74
2022/09/29 08:22:02;;;;;;;4.10;2.25;;;12.00;97.20;;;;;;1681227;29;20201;-74
2022/09/29 08:22:55;;;;;;;2.08;1.88;;;12.00;97.20;;;;;;1681260;29;20205;-74
2022/09/29 08:23:48;;;;;;;3.35;2.40;;;12.00;97.20;;;;;;1681236;29;20209;-74
2022/09/29 08:24:39;;;;;;;2.97;2.60;;;12.00;97.20;;;;;;1681302;29;20684;-74
2022/09/29 08:25:31;;;;;;;2.90;2.70;;;12.00;97.20;;;;;;1681257;29;20643;-74
2022/09/29 08:26:22;;;;;;;2.90;2.60;;;12.00;97.20;;;;;;1681334;29;20205;-74
2022/09/29 08:27:14;;;;;;;3.70;2.88;;;12.00;97.20;;;;;;1681179;29;20583;-74
2022/09/29 08:28:05;;;;;;;3.60;2.85;;;12.00;97.20;;;;;;1681309;29;20695;-74
2022/09/29 08:28:56;;;;;;;2.67;2.47;;;12.10;97.20;;;;;;1681296;29;20667;-74
2022/09/29 08:29:47;;;;;;;4.57;3.03;;;12.10;97.20;;;;;;1681013;29;20217;-74
2022/09/29 08:30:39;;;;;;;6.20;4.60;;;12.10;97.20;;;;;;1680911;29;20227;-74
2022/09/29 08:31:30;;;;;;;9.65;5.60;;;12.10;97.20;;;;;;1681109;29;20201;-74
2022/09/29 08:32:21;;;;;;;6.90;5.20;;;12.10;97.20;;;;;;1681169;29;20205;-74
2022/09/29 08:33:13;;;;;;;7.22;4.35;;;12.10;97.20;;;;;;1681328;29;20446;-74
2022/09/29 08:34:06;;;;;;;5.82;4.50;;;12.20;97.20;;;;;;1681278;29;20283;-73
2022/09/29 08:34:57;;;;;;;4.55;3.75;;;12.20;97.20;;;;;;1681318;29;20205;-73
2022/09/29 08:35:55;;;;;;;5.23;3.90;;;12.20;97.20;;;;;;1681301;29;20205;-74
2022/09/29 08:36:46;;;;;;;5.80;3.92;;;12.20;97.20;;;;;;1681144;29;20209;-73
2022/09/29 08:37:38;;;;;;;4.80;4.10;;;12.20;97.20;;;;;;1681407;29;20273;-74
2022/09/29 08:38:31;;;;;;;5.75;3.50;;;12.30;97.20;;;;;;1681354;29;20251;-74
2022/09/29 08:39:23;;;;;;;6.72;3.05;;;12.30;97.20;;;;;;1681220;29;20213;-74
2022/09/29 08:40:14;;;;;;;3.15;2.85;;;12.30;97.20;;;;;;1680875;29;20220;-74
2022/09/29 08:41:06;;;;;;;3.17;2.85;;;12.30;97.20;;;;;;1681272;29;20209;-74
2022/09/29 08:42:04;;;;;;;5.15;2.50;;;12.30;97.20;;;;;;1681105;29;20209;-74
2022/09/29 08:43:04;;;;;;;2.85;2.30;;;12.30;97.20;;;;;;1681290;29;20284;-74
2022/09/29 08:43:58;;;;;;;2.78;2.17;;;12.40;97.20;;;;;;1681251;29;20209;-74
2022/09/29 08:44:57;;;;;;;2.45;2.25;;;12.40;97.20;;;;;;1680879;29;20633;-74
2022/09/29 08:45:56;;;;;;;4.60;2.53;;;12.40;97.20;;;;;;1681219;29;20247;-74
2022/09/29 08:46:52;;;;;;;2.70;2.10;;;12.40;97.20;;;;;;1681192;29;20205;-74
2022/09/29 08:47:47;;;;;;;2.28;2.13;;;12.50;97.20;;;;;;1681277;29;20684;-74
2022/09/29 08:48:43;;;;;;;2.70;2.50;;;12.50;97.20;;;;;;1681339;29;20209;-74
2022/09/29 08:49:39;;;;;;;2.42;2.22;;;12.50;97.20;;;;;;1680955;29;20216;-74
2022/09/29 08:50:34;;;;;;;3.65;2.10;;;12.50;97.20;;;;;;1681189;29;20676;-74
2022/09/29 08:51:31;;;;;;;2.63;2.42;;;12.50;97.20;;;;;;1681195;29;20224;-74
2022/09/29 08:52:25;;;;;;;2.53;2.20;;;12.50;97.20;;;;;;1681329;29;20225;-74
2022/09/29 08:53:22;;;;;;;2.40;2.00;;;12.60;97.20;;;;;;1681187;29;20201;-73
2022/09/29 08:54:24;;;;;;;3.22;2.10;;;12.60;97.20;;;;;;1681291;29;20710;-74
2022/09/29 08:55:25;;;;;;;2.13;2.00;;;12.60;97.20;;;;;;1681267;29;20218;-74
2022/09/29 08:56:17;;;;;;;2.38;1.92;;;12.70;97.20;;;;;;1681209;29;20265;-73
2022/09/29 08:57:16;;;;;;;1.92;1.83;;;12.70;97.20;;;;;;1680994;29;20264;-74
2022/09/29 08:58:10;;;;;;;2.85;2.00;;;12.70;97.20;;;;;;1681228;29;20739;-74
2022/09/29 08:59:02;;;;;;;2.35;1.75;;;12.70;97.20;;;;;;1680846;29;20284;-74
2022/09/29 08:59:56;;;;;;;2.17;1.80;;;12.80;97.20;;;;;;1680928;29;20276;-74
2022/09/29 09:01:00;;;;;;;2.15;1.90;;;12.80;97.20;;;;;;1680729;29;20221;-74
2022/09/29 09:02:05;;;;;;;3.45;1.90;;;12.80;97.20;;;;;;1681067;29;20217;-74
2022/09/29 09:03:14;;;;;;;1.92;1.77;;;12.80;97.20;;;;;;1681290;29;20696;-74
2022/09/29 09:04:46;;;;;;;2.55;1.95;;;12.90;97.20;;;;;;1681192;29;20213;-74
2022/09/29 09:05:55;;;;;;;3.53;3.22;;;12.90;97.20;;;;;;1681150;29;20210;-74
2022/09/29 09:06:57;;;;;;;5.72;3.60;;;12.90;97.20;;;;;;1681770;29;20214;-74
2022/09/29 09:07:54;;;;;;;2.72;2.30;;;13.00;97.20;;;;;;1681533;29;20577;-74
2022/09/29 09:08:59;;;;;;;2.33;2.10;;;13.00;97.20;;;;;;1681322;29;20209;-74
2022/09/29 09:10:03;;;;;;;3.50;2.38;;;13.10;97.20;;;;;;1680751;29;20224;-74
2022/09/29 09:11:05;;;;;;;2.53;2.28;;;13.10;97.20;;;;;;1681075;29;20237;-73
2022/09/29 09:12:23;;;;;;;3.65;2.50;;;13.20;97.20;;;;;;1681062;29;20241;-74
2022/09/29 09:13:30;;;;;;;2.15;1.80;;;13.20;97.20;;;;;;1681177;29;20216;-74
2022/09/29 09:14:39;;;;;;;2.70;2.30;;;13.20;97.20;;;;;;1681164;29;20213;-74
2022/09/29 09:15:38;;;;;;;2.15;1.92;;;13.30;97.20;;;;;;1681115;29;20574;-74
2022/09/29 09:16:36;;;;;;;3.30;1.75;;;13.30;97.20;;;;;;1681093;29;20205;-74
2022/09/29 09:17:48;;;;;;;3.70;1.70;;;13.30;97.20;;;;;;1680743;29;20288;-74
2022/09/29 09:18:56;;;;;;;2.20;2.00;;;13.30;97.20;;;;;;1681054;29;20229;-74
2022/09/29 09:20:09;;;;;;;4.03;2.65;;;13.30;97.20;;;;;;1680810;29;20224;-74
2022/09/29 09:21:07;;;;;;;2.75;2.17;;;13.30;97.20;;;;;;1681057;29;20229;-74
2022/09/29 09:22:11;;;;;;;3.03;2.30;;;13.30;97.20;;;;;;1681109;29;20244;-74
2022/09/29 09:23:15;;;;;;;2.63;2.42;;;13.30;97.20;;;;;;1682498;29;20205;-74
2022/09/29 09:24:17;;;;;;;2.78;2.10;;;13.40;97.20;;;;;;1682259;29;20205;-74
2022/09/29 09:25:19;;;;;;;3.33;2.03;;;13.40;97.20;;;;;;1682273;29;20217;-74
2022/09/29 09:26:13;;;;;;;3.05;2.17;;;13.40;97.20;;;;;;1682290;29;20232;-74
2022/09/29 09:27:04;;;;;;;3.00;2.08;;;13.40;97.20;;;;;;1682136;29;20240;-74
2022/09/29 09:28:03;;;;;;;1.93;1.73;;;13.40;97.20;;;;;;1682227;29;20224;-74
2022/09/29 09:28:58;;;;;;;2.50;2.30;;;13.40;97.20;;;;;;1682164;29;20928;-74
2022/09/29 09:30:02;;;;;;;2.55;2.28;;;13.40;97.20;;;;;;1681886;29;20224;-74
2022/09/29 09:30:56;;;;;;;2.95;2.50;;;13.40;97.20;;;;;;1682136;29;20229;-74
2022/09/29 09:31:56;;;;;;;2.70;2.42;;;13.40;97.20;;;;;;1681844;29;20201;-74
2022/09/29 09:32:52;;;;;;;4.78;2.70;;;13.40;97.20;;;;;;1682201;29;20217;-74
2022/09/29 09:33:48;;;;;;;4.05;2.30;;;13.40;97.20;;;;;;1682203;29;20268;-74
2022/09/29 09:34:47;;;;;;;4.30;2.50;;;13.30;97.20;;;;;;1682282;29;20257;-74
2022/09/29 09:35:43;;;;;;;3.72;2.20;;;13.30;97.20;;;;;;1682230;29;20220;-74
2022/09/29 09:36:37;;;;;;;5.15;2.28;;;13.30;97.20;;;;;;1682222;29;20205;-74
2022/09/29 09:37:33;;;;;;;3.38;2.13;;;13.30;97.20;;;;;;1682046;29;20236;-74
2022/09/29 09:38:28;;;;;;;2.40;2.20;;;13.30;97.20;;;;;;1682060;29;20556;-74
2022/09/29 09:39:25;;;;;;;2.40;2.17;;;13.20;97.20;;;;;;1682262;29;20209;-74
2022/09/29 09:40:23;;;;;;;3.63;1.77;;;13.20;97.20;;;;;;1681821;29;20194;-74
2022/09/29 09:41:17;;;;;;;3.20;2.40;;;13.20;97.20;;;;;;1682186;29;20232;-74